sensor_id;sensor_type;location;lat;lon;timestamp;pressure;altitude;pressure_sealevel;temperature;humidity
21504;BME280;10913;51.992;9.228;2023-03-04T00:01:24;101015.13;;;3.84;98.14
21504;BME280;10913;51.992;9.228;2023-03-04T00:03:49;101027.31;;;3.84;98.44
21504;BME280;10913;51.992;9.228;2023-03-04T00:06:15;101031.69;;;3.85;98.34
21504;BME280;10913;51.992;9.228;2023-03-04T00:08:40;101024.69;;;3.84;97.86
21504;BME280;10913;51.992;9.228;2023-03-04T00:11:05;101029.97;;;3.85;97.84
21504;BME280;10913;51.992;9.228;2023-03-04T00:13:31;101029.13;;;3.86;97.50
21504;BME280;10913;51.992;9.228;2023-03-04T00:15:56;101032.59;;;3.85;97.51
21504;BME280;10913;51.992;9.228;2023-03-04T00:18:22;101027.47;;;3.88;97.06
21504;BME280;10913;51.992;9.228;2023-03-04T00:20:47;101027.56;;;3.91;97.18
21504;BME280;10913;51.992;9.228;2023-03-04T00:23:14;101021.44;;;3.91;97.12
21504;BME280;10913;51.992;9.228;2023-03-04T00:25:39;101027.59;;;3.93;96.74
21504;BME280;10913;51.992;9.228;2023-03-04T00:28:05;101022.47;;;3.96;96.68
21504;BME280;10913;51.992;9.228;2023-03-04T00:30:30;101021.53;;;3.94;96.45
21504;BME280;10913;51.992;9.228;2023-03-04T00:32:55;101025.19;;;3.99;96.28
21504;BME280;10913;51.992;9.228;2023-03-04T00:35:21;101018.25;;;4.01;95.83
21504;BME280;10913;51.992;9.228;2023-03-04T00:37:46;101023.50;;;4.01;96.00
21504;BME280;10913;51.992;9.228;2023-03-04T00:40:12;101018.38;;;4.04;96.12
21504;BME280;10913;51.992;9.228;2023-03-04T00:42:37;101018.41;;;4.05;95.57
21504;BME280;10913;51.992;9.228;2023-03-04T00:45:03;101019.41;;;4.09;95.26
21504;BME280;10913;51.992;9.228;2023-03-04T00:47:29;101015.09;;;4.11;95.45
21504;BME280;10913;51.992;9.228;2023-03-04T00:49:54;101017.78;;;4.12;95.37
21504;BME280;10913;51.992;9.228;2023-03-04T00:52:20;101016.16;;;4.16;95.20
21504;BME280;10913;51.992;9.228;2023-03-04T00:54:45;101014.41;;;4.17;94.96
21504;BME280;10913;51.992;9.228;2023-03-04T00:57:10;101017.88;;;4.15;95.20
21504;BME280;10913;51.992;9.228;2023-03-04T00:59:36;101017.97;;;4.19;95.12
21504;BME280;10913;51.992;9.228;2023-03-04T01:02:01;101019.75;;;4.21;95.07
21504;BME280;10913;51.992;9.228;2023-03-04T01:04:26;101019.88;;;4.24;94.94
21504;BME280;10913;51.992;9.228;2023-03-04T01:06:52;101018.97;;;4.24;94.76
21504;BME280;10913;51.992;9.228;2023-03-04T01:09:17;101013.69;;;4.22;94.47
21504;BME280;10913;51.992;9.228;2023-03-04T01:11:43;101021.50;;;4.21;94.82
21504;BME280;10913;51.992;9.228;2023-03-04T01:14:08;101016.34;;;4.24;94.78
21504;BME280;10913;51.992;9.228;2023-03-04T01:16:33;101016.41;;;4.25;94.43
21504;BME280;10913;51.992;9.228;2023-03-04T01:18:59;101021.72;;;4.28;94.51
21504;BME280;10913;51.992;9.228;2023-03-04T01:21:24;101017.44;;;4.30;94.12
21504;BME280;10913;51.992;9.228;2023-03-04T01:23:50;101013.09;;;4.31;94.37
21504;BME280;10913;51.992;9.228;2023-03-04T01:26:15;101015.75;;;4.32;94.35
21504;BME280;10913;51.992;9.228;2023-03-04T01:28:41;101005.31;;;4.32;94.26
21504;BME280;10913;51.992;9.228;2023-03-04T01:31:06;101012.31;;;4.33;94.59
21504;BME280;10913;51.992;9.228;2023-03-04T01:33:31;101002.00;;;4.38;94.42
21504;BME280;10913;51.992;9.228;2023-03-04T01:35:57;100995.03;;;4.38;93.96
21504;BME280;10913;51.992;9.228;2023-03-04T01:38:23;100990.69;;;4.39;93.92
21504;BME280;10913;51.992;9.228;2023-03-04T01:40:49;100981.13;;;4.41;94.01
21504;BME280;10913;51.992;9.228;2023-03-04T01:43:26;100986.34;;;4.39;94.09
21504;BME280;10913;51.992;9.228;2023-03-04T01:45:53;100984.63;;;4.41;94.08
21504;BME280;10913;51.992;9.228;2023-03-04T01:48:28;100980.28;;;4.42;94.16
21504;BME280;10913;51.992;9.228;2023-03-04T01:50:56;100972.47;;;4.43;93.93
21504;BME280;10913;51.992;9.228;2023-03-04T01:53:25;100970.66;;;4.41;94.04
21504;BME280;10913;51.992;9.228;2023-03-04T01:55:53;100967.34;;;4.46;93.88
21504;BME280;10913;51.992;9.228;2023-03-04T01:58:19;100965.47;;;4.42;94.03
21504;BME280;10913;51.992;9.228;2023-03-04T02:00:44;100965.53;;;4.44;94.15
21504;BME280;10913;51.992;9.228;2023-03-04T02:03:12;100960.34;;;4.45;94.11
21504;BME280;10913;51.992;9.228;2023-03-04T02:05:42;100963.78;;;4.44;93.95
21504;BME280;10913;51.992;9.228;2023-03-04T02:08:09;100949.88;;;4.45;93.84
21504;BME280;10913;51.992;9.228;2023-03-04T02:10:36;100955.09;;;4.45;93.96
21504;BME280;10913;51.992;9.228;2023-03-04T02:13:02;100949.03;;;4.46;93.81
21504;BME280;10913;51.992;9.228;2023-03-04T02:15:28;100946.50;;;4.49;93.69
21504;BME280;10913;51.992;9.228;2023-03-04T02:17:54;100949.97;;;4.48;93.73
21504;BME280;10913;51.992;9.228;2023-03-04T02:25:29;100928.97;;;4.47;93.67
21504;BME280;10913;51.992;9.228;2023-03-04T02:27:55;100934.25;;;4.48;93.81
21504;BME280;10913;51.992;9.228;2023-03-04T02:30:22;100932.50;;;4.47;93.78
21504;BME280;10913;51.992;9.228;2023-03-04T02:32:49;100934.34;;;4.52;93.86
21504;BME280;10913;51.992;9.228;2023-03-04T02:35:16;100937.91;;;4.54;93.93
21504;BME280;10913;51.992;9.228;2023-03-04T02:37:42;100935.28;;;4.54;93.71
21504;BME280;10913;51.992;9.228;2023-03-04T02:40:17;100931.88;;;4.56;93.58
21504;BME280;10913;51.992;9.228;2023-03-04T02:42:45;100933.59;;;4.56;93.76
21504;BME280;10913;51.992;9.228;2023-03-04T02:45:34;100931.06;;;4.59;93.60
21504;BME280;10913;51.992;9.228;2023-03-04T02:48:00;100931.06;;;4.59;93.81
21504;BME280;10913;51.992;9.228;2023-03-04T02:50:29;100929.31;;;4.58;93.46
21504;BME280;10913;51.992;9.228;2023-03-04T02:52:55;100926.69;;;4.58;93.52
21504;BME280;10913;51.992;9.228;2023-03-04T02:55:20;100924.91;;;4.57;93.48
21504;BME280;10913;51.992;9.228;2023-03-04T02:57:46;100920.44;;;4.53;93.56
21504;BME280;10913;51.992;9.228;2023-03-04T03:00:12;100927.44;;;4.54;93.70
21504;BME280;10913;51.992;9.228;2023-03-04T03:02:37;100921.41;;;4.56;93.72
21504;BME280;10913;51.992;9.228;2023-03-04T03:05:03;100926.69;;;4.58;93.86
21504;BME280;10913;51.992;9.228;2023-03-04T03:07:28;100906.59;;;4.57;93.84
21504;BME280;10913;51.992;9.228;2023-03-04T03:09:54;100912.72;;;4.57;93.65
21504;BME280;10913;51.992;9.228;2023-03-04T03:12:19;100904.88;;;4.57;93.78
21504;BME280;10913;51.992;9.228;2023-03-04T03:14:44;100908.31;;;4.56;93.67
21504;BME280;10913;51.992;9.228;2023-03-04T03:17:10;100908.38;;;4.58;93.86
21504;BME280;10913;51.992;9.228;2023-03-04T03:19:35;100912.66;;;4.56;93.92
21504;BME280;10913;51.992;9.228;2023-03-04T03:22:00;100899.69;;;4.59;93.83
21504;BME280;10913;51.992;9.228;2023-03-04T03:24:26;100904.91;;;4.59;93.91
21504;BME280;10913;51.992;9.228;2023-03-04T03:26:51;100896.22;;;4.61;93.80
21504;BME280;10913;51.992;9.228;2023-03-04T03:29:16;100898.78;;;4.60;93.82
21504;BME280;10913;51.992;9.228;2023-03-04T03:31:42;100892.75;;;4.62;93.76
21504;BME280;10913;51.992;9.228;2023-03-04T03:34:07;100891.03;;;4.63;93.96
21504;BME280;10913;51.992;9.228;2023-03-04T03:36:32;100892.81;;;4.64;93.92
21504;BME280;10913;51.992;9.228;2023-03-04T03:38:58;100891.03;;;4.63;93.86
21504;BME280;10913;51.992;9.228;2023-03-04T03:41:23;100886.66;;;4.62;94.00
21504;BME280;10913;51.992;9.228;2023-03-04T03:43:48;100886.66;;;4.62;94.07
21504;BME280;10913;51.992;9.228;2023-03-04T03:46:14;100888.41;;;4.63;93.92
21504;BME280;10913;51.992;9.228;2023-03-04T03:48:39;100891.94;;;4.63;93.97
21504;BME280;10913;51.992;9.228;2023-03-04T03:51:04;100891.94;;;4.63;94.04
21504;BME280;10913;51.992;9.228;2023-03-04T03:53:30;100892.91;;;4.67;94.06
21504;BME280;10913;51.992;9.228;2023-03-04T03:55:55;100898.13;;;4.67;93.86
21504;BME280;10913;51.992;9.228;2023-03-04T03:58:20;100899.94;;;4.69;94.04
21504;BME280;10913;51.992;9.228;2023-03-04T04:00:47;100896.41;;;4.67;93.97
21504;BME280;10913;51.992;9.228;2023-03-04T04:03:14;100900.88;;;4.71;94.02
21504;BME280;10913;51.992;9.228;2023-03-04T04:05:40;100894.75;;;4.71;93.89
21504;BME280;10913;51.992;9.228;2023-03-04T04:08:05;100894.75;;;4.71;94.15
21504;BME280;10913;51.992;9.228;2023-03-04T04:10:30;100894.75;;;4.71;93.97
21504;BME280;10913;51.992;9.228;2023-03-04T04:12:56;100891.22;;;4.69;93.93
21504;BME280;10913;51.992;9.228;2023-03-04T04:15:21;100888.59;;;4.69;94.12
21504;BME280;10913;51.992;9.228;2023-03-04T04:17:47;100889.44;;;4.68;94.22
21504;BME280;10913;51.992;9.228;2023-03-04T04:20:12;100886.78;;;4.66;94.20
21504;BME280;10913;51.992;9.228;2023-03-04T04:22:37;100889.47;;;4.69;94.61
21504;BME280;10913;51.992;9.228;2023-03-04T04:25:03;100885.13;;;4.70;94.51
21504;BME280;10913;51.992;9.228;2023-03-04T04:27:29;100880.81;;;4.72;94.74
21504;BME280;10913;51.992;9.228;2023-03-04T04:29:54;100878.28;;;4.75;94.34
21504;BME280;10913;51.992;9.228;2023-03-04T04:32:19;100877.44;;;4.76;94.35
21504;BME280;10913;51.992;9.228;2023-03-04T04:34:45;100877.41;;;4.74;94.27
21504;BME280;10913;51.992;9.228;2023-03-04T04:37:10;100880.81;;;4.72;94.62
21504;BME280;10913;51.992;9.228;2023-03-04T04:39:35;100873.91;;;4.74;94.57
21504;BME280;10913;51.992;9.228;2023-03-04T04:42:02;100874.84;;;4.76;94.65
21504;BME280;10913;51.992;9.228;2023-03-04T04:44:27;100878.28;;;4.75;94.73
21504;BME280;10913;51.992;9.228;2023-03-04T04:46:53;100879.22;;;4.77;94.51
21504;BME280;10913;51.992;9.228;2023-03-04T04:49:18;100870.44;;;4.75;94.55
21504;BME280;10913;51.992;9.228;2023-03-04T04:51:43;100874.84;;;4.76;94.63
21504;BME280;10913;51.992;9.228;2023-03-04T04:54:09;100877.44;;;4.76;94.58
21504;BME280;10913;51.992;9.228;2023-03-04T04:56:37;100863.56;;;4.80;94.49
21504;BME280;10913;51.992;9.228;2023-03-04T04:59:04;100871.41;;;4.80;94.74
21504;BME280;10913;51.992;9.228;2023-03-04T05:01:30;100871.41;;;4.78;94.81
21504;BME280;10913;51.992;9.228;2023-03-04T05:03:55;100876.59;;;4.77;95.13
21504;BME280;10913;51.992;9.228;2023-03-04T05:06:23;100873.09;;;4.76;95.04
21504;BME280;10913;51.992;9.228;2023-03-04T05:08:49;100873.06;;;4.75;94.90
21504;BME280;10913;51.992;9.228;2023-03-04T05:11:16;100865.28;;;4.78;95.13
21504;BME280;10913;51.992;9.228;2023-03-04T05:13:46;100876.66;;;4.78;95.11
21504;BME280;10913;51.992;9.228;2023-03-04T05:16:12;100873.13;;;4.78;95.07
21504;BME280;10913;51.992;9.228;2023-03-04T05:18:38;100873.13;;;4.78;95.02
21504;BME280;10913;51.992;9.228;2023-03-04T05:21:04;100868.75;;;4.77;95.33
21504;BME280;10913;51.992;9.228;2023-03-04T05:23:32;100866.97;;;4.76;95.57
21504;BME280;10913;51.992;9.228;2023-03-04T05:25:58;100866.09;;;4.75;95.44
21504;BME280;10913;51.992;9.228;2023-03-04T05:28:23;100866.94;;;4.74;95.78
21504;BME280;10913;51.992;9.228;2023-03-04T05:30:49;100864.31;;;4.74;95.75
21504;BME280;10913;51.992;9.228;2023-03-04T05:33:16;100858.28;;;4.77;95.64
21504;BME280;10913;51.992;9.228;2023-03-04T05:35:42;100866.97;;;4.76;95.80
21504;BME280;10913;51.992;9.228;2023-03-04T05:38:10;100861.84;;;4.79;95.80
21504;BME280;10913;51.992;9.228;2023-03-04T05:40:36;100861.75;;;4.76;96.01
21504;BME280;10913;51.992;9.228;2023-03-04T05:43:02;100871.38;;;4.77;96.22
21504;BME280;10913;51.992;9.228;2023-03-04T05:45:27;100868.75;;;4.77;96.33
21504;BME280;10913;51.992;9.228;2023-03-04T05:47:53;100873.91;;;4.74;96.70
21504;BME280;10913;51.992;9.228;2023-03-04T05:50:20;100874.84;;;4.76;96.37
21504;BME280;10913;51.992;9.228;2023-03-04T05:52:45;100865.22;;;4.75;96.93
21504;BME280;10913;51.992;9.228;2023-03-04T05:55:11;100873.00;;;4.73;96.76
21504;BME280;10913;51.992;9.228;2023-03-04T05:57:37;100866.09;;;4.75;97.21
21504;BME280;10913;51.992;9.228;2023-03-04T06:00:04;100864.31;;;4.74;96.90
21504;BME280;10913;51.992;9.228;2023-03-04T06:02:33;100867.78;;;4.73;97.18
21504;BME280;10913;51.992;9.228;2023-03-04T06:04:59;100866.00;;;4.72;97.09
21504;BME280;10913;51.992;9.228;2023-03-04T06:07:24;100865.13;;;4.72;97.40
21504;BME280;10913;51.992;9.228;2023-03-04T06:09:49;100874.72;;;4.71;97.39
21504;BME280;10913;51.992;9.228;2023-03-04T06:12:15;100871.19;;;4.71;97.49
21504;BME280;10913;51.992;9.228;2023-03-04T06:14:46;100871.16;;;4.69;97.51
21504;BME280;10913;51.992;9.228;2023-03-04T06:17:12;100871.19;;;4.71;97.73
21504;BME280;10913;51.992;9.228;2023-03-04T06:19:37;100868.50;;;4.68;98.12
21504;BME280;10913;51.992;9.228;2023-03-04T06:22:06;100863.25;;;4.68;98.22
21504;BME280;10913;51.992;9.228;2023-03-04T06:24:31;100866.72;;;4.67;98.20
21504;BME280;10913;51.992;9.228;2023-03-04T06:26:57;100876.34;;;4.68;98.39
21504;BME280;10913;51.992;9.228;2023-03-04T06:29:22;100871.03;;;4.65;98.55
21504;BME280;10913;51.992;9.228;2023-03-04T06:31:47;100883.28;;;4.66;98.77
21504;BME280;10913;51.992;9.228;2023-03-04T06:34:13;100872.81;;;4.66;99.11
21504;BME280;10913;51.992;9.228;2023-03-04T06:36:38;100870.28;;;4.69;99.56
21504;BME280;10913;51.992;9.228;2023-03-04T06:39:04;100870.31;;;4.70;99.83
21504;BME280;10913;51.992;9.228;2023-03-04T06:41:30;100870.31;;;4.70;99.40
21504;BME280;10913;51.992;9.228;2023-03-04T06:43:56;100871.28;;;4.74;99.62
21504;BME280;10913;51.992;9.228;2023-03-04T06:46:22;100872.13;;;4.73;99.59
21504;BME280;10913;51.992;9.228;2023-03-04T06:48:50;100875.59;;;4.72;99.72
21504;BME280;10913;51.992;9.228;2023-03-04T06:51:16;100880.78;;;4.70;100.00
21504;BME280;10913;51.992;9.228;2023-03-04T06:53:42;100884.31;;;4.72;100.00
21504;BME280;10913;51.992;9.228;2023-03-04T06:56:09;100881.75;;;4.74;100.00
21504;BME280;10913;51.992;9.228;2023-03-04T06:58:36;100880.09;;;4.77;100.00
21504;BME280;10913;51.992;9.228;2023-03-04T07:03:37;100882.88;;;4.83;100.00
21504;BME280;10913;51.992;9.228;2023-03-04T07:06:02;100884.63;;;4.84;100.00
21504;BME280;10913;51.992;9.228;2023-03-04T07:08:28;100883.75;;;4.84;100.00
21504;BME280;10913;51.992;9.228;2023-03-04T07:10:53;100881.16;;;4.85;100.00
21504;BME280;10913;51.992;9.228;2023-03-04T07:13:18;100874.22;;;4.86;100.00
21504;BME280;10913;51.992;9.228;2023-03-04T07:15:44;100877.00;;;4.92;100.00
21504;BME280;10913;51.992;9.228;2023-03-04T07:18:09;100860.50;;;4.96;100.00
21504;BME280;10913;51.992;9.228;2023-03-04T07:20:35;100868.44;;;4.99;100.00
21504;BME280;10913;51.992;9.228;2023-03-04T07:23:01;100868.47;;;5.01;100.00
21504;BME280;10913;51.992;9.228;2023-03-04T07:25:26;100867.69;;;5.05;100.00
21504;BME280;10913;51.992;9.228;2023-03-04T07:27:51;100874.78;;;5.09;100.00
21504;BME280;10913;51.992;9.228;2023-03-04T07:30:17;100866.13;;;5.11;100.00
21504;BME280;10913;51.992;9.228;2023-03-04T07:32:42;100869.75;;;5.16;100.00
21504;BME280;10913;51.992;9.228;2023-03-04T07:35:08;100871.47;;;5.16;100.00
21504;BME280;10913;51.992;9.228;2023-03-04T07:37:33;100873.34;;;5.22;100.00
21504;BME280;10913;51.992;9.228;2023-03-04T07:39:58;100868.19;;;5.25;100.00
21504;BME280;10913;51.992;9.228;2023-03-04T07:42:24;100864.78;;;5.29;100.00
21504;BME280;10913;51.992;9.228;2023-03-04T07:44:49;100871.81;;;5.30;100.00
21504;BME280;10913;51.992;9.228;2023-03-04T07:47:14;100872.72;;;5.32;100.00
21504;BME280;10913;51.992;9.228;2023-03-04T07:49:40;100871.91;;;5.34;100.00
21504;BME280;10913;51.992;9.228;2023-03-04T07:52:05;100868.44;;;5.35;100.00
21504;BME280;10913;51.992;9.228;2023-03-04T07:54:31;100864.94;;;5.35;100.00
21504;BME280;10913;51.992;9.228;2023-03-04T07:56:56;100869.22;;;5.31;100.00
21504;BME280;10913;51.992;9.228;2023-03-04T07:59:21;100869.25;;;5.33;100.00
21504;BME280;10913;51.992;9.228;2023-03-04T08:01:47;100872.75;;;5.33;100.00
21504;BME280;10913;51.992;9.228;2023-03-04T08:04:12;100870.19;;;5.35;100.00
21504;BME280;10913;51.992;9.228;2023-03-04T08:06:40;100867.56;;;5.35;100.00
21504;BME280;10913;51.992;9.228;2023-03-04T08:09:07;100871.88;;;5.33;100.00
21504;BME280;10913;51.992;9.228;2023-03-04T08:11:35;100871.09;;;5.37;100.00
21504;BME280;10913;51.992;9.228;2023-03-04T08:14:00;100871.94;;;5.36;100.00
21504;BME280;10913;51.992;9.228;2023-03-04T08:16:26;100866.69;;;5.34;100.00
21504;BME280;10913;51.992;9.228;2023-03-04T08:18:55;100875.50;;;5.38;100.00
21504;BME280;10913;51.992;9.228;2023-03-04T08:21:22;100872.03;;;5.39;100.00
21504;BME280;10913;51.992;9.228;2023-03-04T08:23:48;100865.94;;;5.41;100.00
21504;BME280;10913;51.992;9.228;2023-03-04T08:26:25;100873.09;;;5.48;100.00
21504;BME280;10913;51.992;9.228;2023-03-04T08:28:52;100873.09;;;5.48;100.00
21504;BME280;10913;51.992;9.228;2023-03-04T08:31:18;100867.03;;;5.49;100.00
21504;BME280;10913;51.992;9.228;2023-03-04T08:33:46;100870.59;;;5.53;100.00
21504;BME280;10913;51.992;9.228;2023-03-04T08:36:13;100870.69;;;5.56;100.00
21504;BME280;10913;51.992;9.228;2023-03-04T08:38:38;100869.09;;;5.64;100.00
21504;BME280;10913;51.992;9.228;2023-03-04T08:41:04;100870.88;;;5.65;100.00
21504;BME280;10913;51.992;9.228;2023-03-04T08:43:30;100871.00;;;5.71;100.00
21504;BME280;10913;51.992;9.228;2023-03-04T08:45:55;100864.91;;;5.72;100.00
21504;BME280;10913;51.992;9.228;2023-03-04T08:48:22;100869.25;;;5.70;100.00
21504;BME280;10913;51.992;9.228;2023-03-04T08:50:48;100870.94;;;5.68;100.00
21504;BME280;10913;51.992;9.228;2023-03-04T08:53:15;100871.84;;;5.70;100.00
21504;BME280;10913;51.992;9.228;2023-03-04T08:55:42;100871.00;;;5.71;100.00
21504;BME280;10913;51.992;9.228;2023-03-04T08:58:08;100861.41;;;5.72;100.00
21504;BME280;10913;51.992;9.228;2023-03-04T09:00:36;100863.22;;;5.74;100.00
21504;BME280;10913;51.992;9.228;2023-03-04T09:03:02;100864.22;;;5.79;100.00
21504;BME280;10913;51.992;9.228;2023-03-04T09:05:28;100860.78;;;5.83;100.00
21504;BME280;10913;51.992;9.228;2023-03-04T09:07:54;100866.09;;;5.86;100.00
21504;BME280;10913;51.992;9.228;2023-03-04T09:10:19;100857.38;;;5.87;100.00
21504;BME280;10913;51.992;9.228;2023-03-04T09:12:45;100857.72;;;6.03;100.00
21504;BME280;10913;51.992;9.228;2023-03-04T09:15:11;100858.63;;;6.05;100.00
21504;BME280;10913;51.992;9.228;2023-03-04T09:17:37;100856.19;;;6.12;100.00
21504;BME280;10913;51.992;9.228;2023-03-04T09:20:03;100854.59;;;6.22;100.00
21504;BME280;10913;51.992;9.228;2023-03-04T09:22:29;100852.97;;;6.27;100.00
21504;BME280;10913;51.992;9.228;2023-03-04T09:24:54;100853.81;;;6.26;100.00
21504;BME280;10913;51.992;9.228;2023-03-04T09:27:19;100850.34;;;6.27;100.00
21504;BME280;10913;51.992;9.228;2023-03-04T09:29:45;100856.44;;;6.26;100.00
21504;BME280;10913;51.992;9.228;2023-03-04T09:32:10;100863.59;;;6.33;100.00
21504;BME280;10913;51.992;9.228;2023-03-04T09:34:35;100857.53;;;6.36;100.00
21504;BME280;10913;51.992;9.228;2023-03-04T09:37:01;100855.84;;;6.39;100.00
21504;BME280;10913;51.992;9.228;2023-03-04T09:39:26;100867.28;;;6.44;100.00
21504;BME280;10913;51.992;9.228;2023-03-04T09:41:54;100861.16;;;6.44;100.00
21504;BME280;10913;51.992;9.228;2023-03-04T09:44:23;100861.09;;;6.39;100.00
21504;BME280;10913;51.992;9.228;2023-03-04T09:46:49;100853.97;;;6.34;100.00
21504;BME280;10913;51.992;9.228;2023-03-04T09:49:15;100857.38;;;6.28;100.00
21504;BME280;10913;51.992;9.228;2023-03-04T09:56:57;100858.34;;;6.33;100.00
21504;BME280;10913;51.992;9.228;2023-03-04T09:59:29;100850.41;;;6.30;100.00
21504;BME280;10913;51.992;9.228;2023-03-04T10:01:58;100859.16;;;6.31;100.00
21504;BME280;10913;51.992;9.228;2023-03-04T10:04:36;100847.78;;;6.30;100.00
21504;BME280;10913;51.992;9.228;2023-03-04T10:07:07;100839.81;;;6.26;100.00
21504;BME280;10913;51.992;9.228;2023-03-04T10:09:52;100842.66;;;6.36;100.00
21504;BME280;10913;51.992;9.228;2023-03-04T10:12:22;100828.78;;;6.43;100.00
21504;BME280;10913;51.992;9.228;2023-03-04T10:15:06;100831.53;;;6.49;100.00
21504;BME280;10913;51.992;9.228;2023-03-04T10:17:43;100834.28;;;6.55;100.00
21504;BME280;10913;51.992;9.228;2023-03-04T10:20:25;100827.22;;;6.53;100.00
21504;BME280;10913;51.992;9.228;2023-03-04T10:22:59;100830.69;;;6.50;100.00
21504;BME280;10913;51.992;9.228;2023-03-04T10:25:29;100822.75;;;6.47;100.00
21504;BME280;10913;51.992;9.228;2023-03-04T10:27:58;100831.47;;;6.46;100.00
21504;BME280;10913;51.992;9.228;2023-03-04T10:32:52;100828.97;;;6.52;100.00
21504;BME280;10913;51.992;9.228;2023-03-04T10:35:19;100833.31;;;6.50;100.00
21504;BME280;10913;51.992;9.228;2023-03-04T10:37:50;100829.00;;;6.54;100.00
21504;BME280;10913;51.992;9.228;2023-03-04T10:40:21;100823.84;;;6.59;100.00
21504;BME280;10913;51.992;9.228;2023-03-04T10:42:48;100822.19;;;6.65;100.00
21504;BME280;10913;51.992;9.228;2023-03-04T10:45:23;100823.03;;;6.64;100.00
21504;BME280;10913;51.992;9.228;2023-03-04T10:47:54;100819.53;;;6.64;100.00
21504;BME280;10913;51.992;9.228;2023-03-04T10:50:22;100819.56;;;6.65;100.00
21504;BME280;10913;51.992;9.228;2023-03-04T10:52:48;100816.84;;;6.61;100.00
21504;BME280;10913;51.992;9.228;2023-03-04T10:55:41;100823.88;;;6.62;100.00
21504;BME280;10913;51.992;9.228;2023-03-04T10:58:14;100818.53;;;6.55;100.00
21504;BME280;10913;51.992;9.228;2023-03-04T11:00:42;100822.16;;;6.64;100.00
21504;BME280;10913;51.992;9.228;2023-03-04T11:06:18;100830.00;;;6.62;100.00
21504;BME280;10913;51.992;9.228;2023-03-04T11:08:44;100829.22;;;6.68;100.00
21504;BME280;10913;51.992;9.228;2023-03-04T11:11:24;100830.06;;;6.65;100.00
21504;BME280;10913;51.992;9.228;2023-03-04T11:13:55;100828.34;;;6.67;100.00
21504;BME280;10913;51.992;9.228;2023-03-04T11:16:28;100822.25;;;6.68;100.00
21504;BME280;10913;51.992;9.228;2023-03-04T11:19:00;100814.53;;;6.77;100.00
21504;BME280;10913;51.992;9.228;2023-03-04T11:21:30;100815.63;;;6.91;100.00
21504;BME280;10913;51.992;9.228;2023-03-04T11:24:00;100811.44;;;7.04;100.00
21504;BME280;10913;51.992;9.228;2023-03-04T11:31:36;100805.34;;;7.05;100.00
21504;BME280;10913;51.992;9.228;2023-03-04T11:37:08;100808.75;;;6.98;100.00
21504;BME280;10913;51.992;9.228;2023-03-04T11:39:46;100807.72;;;6.90;100.00
21504;BME280;10913;51.992;9.228;2023-03-04T11:45:16;100800.50;;;6.75;100.00
21504;BME280;10913;51.992;9.228;2023-03-04T11:50:30;100803.88;;;6.70;100.00
21504;BME280;10913;51.992;9.228;2023-03-04T11:55:41;100790.88;;;6.76;99.37
21504;BME280;10913;51.992;9.228;2023-03-04T12:01:12;100798.13;;;6.92;97.91
21504;BME280;10913;51.992;9.228;2023-03-04T12:15:39;100751.88;;;8.44;89.46
21504;BME280;10913;51.992;9.228;2023-03-04T12:32:16;100760.91;;;7.88;90.68
21504;BME280;10913;51.992;9.228;2023-03-04T12:40:07;100754.53;;;7.68;93.65
21504;BME280;10913;51.992;9.228;2023-03-04T12:42:41;100750.25;;;7.76;93.19
21504;BME280;10913;51.992;9.228;2023-03-04T12:47:49;100730.06;;;7.74;92.19
21504;BME280;10913;51.992;9.228;2023-03-04T12:50:35;100730.09;;;7.77;92.73
21504;BME280;10913;51.992;9.228;2023-03-04T12:55:43;100729.19;;;7.73;91.89
21504;BME280;10913;51.992;9.228;2023-03-04T12:58:17;100735.25;;;7.69;93.36
21504;BME280;10913;51.992;9.228;2023-03-04T13:00:54;100745.81;;;7.72;93.84
21504;BME280;10913;51.992;9.228;2023-03-04T13:06:04;100746.56;;;7.62;94.13
21504;BME280;10913;51.992;9.228;2023-03-04T13:16:38;100742.78;;;7.42;95.92
21504;BME280;10913;51.992;9.228;2023-03-04T13:24:55;100735.56;;;7.24;94.56
21504;BME280;10913;51.992;9.228;2023-03-04T13:43:54;100705.25;;;8.32;91.85
21504;BME280;10913;51.992;9.228;2023-03-04T13:54:26;100705.56;;;7.78;91.14
21504;BME280;10913;51.992;9.228;2023-03-04T14:01:59;100708.84;;;7.58;93.06
21504;BME280;10913;51.992;9.228;2023-03-04T14:04:39;100714.06;;;7.55;92.86
21504;BME280;10913;51.992;9.228;2023-03-04T14:07:24;100705.28;;;7.53;92.33
21504;BME280;10913;51.992;9.228;2023-03-04T14:09:58;100714.81;;;7.47;91.78
21504;BME280;10913;51.992;9.228;2023-03-04T14:12:26;100714.75;;;7.42;91.60
21504;BME280;10913;51.992;9.228;2023-03-04T14:14:55;100711.19;;;7.36;91.88
21504;BME280;10913;51.992;9.228;2023-03-04T14:17:24;100701.47;;;7.30;91.22
21504;BME280;10913;51.992;9.228;2023-03-04T14:19:51;100707.47;;;7.21;91.58
21504;BME280;10913;51.992;9.228;2023-03-04T14:27:37;100707.38;;;7.12;92.21
21504;BME280;10913;51.992;9.228;2023-03-04T14:30:06;100719.66;;;7.13;92.34
21504;BME280;10913;51.992;9.228;2023-03-04T14:32:32;100708.22;;;7.10;92.16
21504;BME280;10913;51.992;9.228;2023-03-04T14:35:05;100709.09;;;7.10;92.03
21504;BME280;10913;51.992;9.228;2023-03-04T14:37:43;100709.91;;;7.06;92.17
21504;BME280;10913;51.992;9.228;2023-03-04T14:40:19;100704.69;;;7.08;91.11
21504;BME280;10913;51.992;9.228;2023-03-04T14:42:46;100698.53;;;7.07;91.25
21504;BME280;10913;51.992;9.228;2023-03-04T14:45:15;100686.34;;;7.12;91.21
21504;BME280;10913;51.992;9.228;2023-03-04T14:47:45;100684.66;;;7.16;90.47
21504;BME280;10913;51.992;9.228;2023-03-04T14:50:15;100684.63;;;7.14;90.70
21504;BME280;10913;51.992;9.228;2023-03-04T14:52:43;100690.81;;;7.18;90.34
21504;BME280;10913;51.992;9.228;2023-03-04T14:57:42;100686.44;;;7.20;88.58
21504;BME280;10913;51.992;9.228;2023-03-04T15:00:26;100682.00;;;7.14;88.11
21504;BME280;10913;51.992;9.228;2023-03-04T15:03:06;100672.28;;;7.09;87.93
21504;BME280;10913;51.992;9.228;2023-03-04T15:05:41;100679.25;;;7.05;87.68
21504;BME280;10913;51.992;9.228;2023-03-04T15:08:21;100672.16;;;7.00;88.23